createdAt,value
2022-11-14T03:58:11.392Z,7.40
2022-11-14T04:00:38.879Z,5.40
2022-11-14T04:03:05.618Z,5.30
2022-11-14T04:05:32.511Z,5.50
2022-11-14T04:07:59.225Z,5.40
2022-11-14T05:43:47.205Z,5.30
2022-11-14T05:46:15.780Z,4.90
2022-11-14T05:48:43.135Z,4.90
2022-11-14T05:51:13.623Z,5.00
2022-11-14T05:53:41.502Z,4.90
2022-11-14T05:56:12.176Z,5.00
2022-11-14T05:58:39.685Z,5.00
2022-11-14T06:01:15.222Z,5.10
2022-11-14T06:03:44.754Z,5.00
2022-11-14T06:06:14.005Z,5.00
2022-11-14T06:08:41.165Z,5.10
2022-11-14T06:11:12.382Z,5.00
2022-11-14T06:13:39.591Z,5.10
2022-11-14T06:16:09.950Z,4.90
2022-11-14T06:18:37.034Z,4.90
2022-11-14T06:21:11.215Z,4.90
2022-11-14T06:23:37.951Z,5.00
2022-11-14T06:26:07.356Z,5.00
2022-11-14T06:28:34.250Z,4.90
2022-11-14T06:31:04.690Z,4.90
2022-11-14T06:33:35.761Z,4.80
2022-11-14T06:36:05.544Z,4.80
2022-11-14T06:38:34.268Z,4.70
2022-11-14T06:41:06.975Z,4.80
2022-11-14T06:43:42.474Z,4.90
2022-11-14T06:46:11.293Z,4.90
2022-11-14T06:48:38.581Z,4.90
2022-11-14T06:51:06.284Z,4.90
2022-11-14T06:53:35.458Z,4.80
2022-11-14T06:56:12.668Z,4.70
2022-11-14T06:58:42.690Z,4.70
2022-11-14T07:01:14.050Z,4.80
2022-11-14T07:03:41.884Z,4.80
2022-11-14T07:06:11.323Z,4.80
2022-11-14T07:08:38.609Z,4.80
2022-11-14T07:11:08.034Z,4.80
2022-11-14T07:13:35.686Z,4.70
2022-11-14T07:16:03.645Z,4.70
2022-11-14T07:18:32.544Z,4.70
2022-11-14T07:21:02.068Z,4.80
2022-11-14T07:23:30.268Z,4.80
2022-11-14T07:26:01.475Z,4.90
2022-11-14T07:28:28.554Z,5.00
2022-11-14T07:30:55.609Z,5.00
2022-11-14T07:33:22.563Z,5.20
2022-11-14T07:35:51.329Z,5.30
2022-11-14T07:38:18.027Z,5.50
2022-11-14T07:40:59.115Z,5.70
2022-11-14T07:43:27.042Z,5.70
2022-11-14T07:45:54.577Z,5.80
2022-11-14T07:48:22.424Z,5.90
2022-11-14T07:50:49.167Z,6.00
2022-11-14T07:53:18.157Z,6.10
2022-11-14T07:55:44.908Z,6.30
2022-11-14T07:58:11.824Z,6.30
2022-11-14T08:00:38.591Z,6.40
2022-11-14T08:03:07.512Z,6.60
2022-11-14T08:05:35.041Z,6.60
2022-11-14T09:27:27.030Z,8.00
2022-11-14T09:29:53.780Z,8.10
2022-11-14T09:32:20.520Z,8.00
2022-11-14T09:34:48.071Z,8.10
2022-11-14T09:37:14.873Z,8.10
2022-11-14T09:39:41.708Z,8.10
2022-11-14T09:42:32.956Z,8.10
2022-11-14T09:45:02.309Z,8.00
2022-11-14T09:47:30.763Z,8.10
2022-11-14T09:50:27.469Z,8.10
2022-11-14T09:53:10.416Z,8.10
2022-11-14T09:55:37.620Z,8.20
2022-11-14T09:58:08.659Z,8.20
2022-11-14T10:01:08.946Z,8.20
2022-11-14T10:03:51.372Z,8.20
2022-11-14T10:06:34.960Z,8.30
2022-11-14T10:09:46.204Z,8.20
2022-11-14T10:12:34.431Z,8.30
2022-11-14T10:15:16.893Z,8.30
2022-11-14T10:18:29.110Z,8.30
2022-11-14T10:21:07.879Z,8.30
2022-11-14T10:23:37.277Z,8.30
2022-11-14T10:26:31.368Z,8.30
2022-11-14T10:29:28.811Z,8.30
2022-11-14T10:32:10.663Z,8.30
2022-11-14T10:34:56.487Z,8.30
2022-11-14T10:37:38.774Z,8.20
2022-11-14T10:40:18.064Z,8.20
2022-11-14T10:42:49.654Z,8.20
2022-11-14T10:45:38.885Z,8.20
2022-11-14T10:48:17.027Z,8.20
2022-11-14T10:50:50.737Z,8.20
2022-11-14T10:53:55.395Z,8.30
2022-11-14T10:56:22.500Z,8.30
2022-11-14T10:58:50.229Z,8.30
2022-11-14T11:01:35.526Z,8.30
2022-11-14T11:04:21.597Z,8.40
2022-11-14T11:06:50.812Z,8.40
2022-11-14T11:09:43.808Z,8.50
2022-11-14T11:12:23.853Z,8.50
2022-11-14T11:15:21.714Z,8.60
2022-11-14T11:18:01.738Z,8.60
2022-11-14T11:20:31.291Z,8.70
2022-11-14T11:23:10.551Z,8.70
2022-11-14T11:25:38.984Z,8.70
2022-11-14T11:28:06.489Z,8.80
2022-11-14T11:30:33.638Z,8.80
2022-11-14T11:33:22.211Z,8.90
2022-11-14T11:35:51.055Z,9.00
2022-11-14T11:38:20.023Z,9.10
2022-11-14T11:40:50.013Z,9.10
2022-11-14T11:43:54.001Z,9.20
2022-11-14T11:46:42.488Z,9.30
2022-11-14T11:49:39.420Z,9.30
2022-11-14T11:52:32.333Z,9.40
2022-11-14T11:55:09.790Z,9.50
2022-11-14T11:57:43.929Z,9.60
2022-11-14T12:00:24.701Z,9.70
2022-11-14T12:02:52.941Z,9.80
2022-11-14T12:05:41.676Z,9.70
2022-11-14T12:08:51.388Z,9.90
2022-11-14T12:11:21.440Z,9.90
2022-11-14T12:14:06.830Z,10.20
2022-11-14T12:17:11.153Z,10.20
2022-11-14T12:19:40.731Z,10.30
2022-11-14T12:22:07.377Z,10.60
2022-11-14T12:24:52.768Z,10.50
2022-11-14T12:27:44.508Z,10.30
2022-11-14T12:30:22.055Z,10.30
2022-11-14T12:32:58.323Z,10.10
2022-11-14T12:35:29.508Z,10.00
2022-11-14T12:37:58.522Z,10.00
2022-11-14T12:40:28.924Z,10.10
2022-11-14T12:42:57.306Z,10.10
2022-11-14T12:45:42.318Z,10.20
2022-11-14T12:48:15.037Z,10.10
2022-11-14T12:50:43.451Z,10.00
2022-11-14T12:53:37.959Z,10.10
2022-11-14T12:56:29.282Z,10.10
2022-11-14T12:59:17.015Z,10.10
2022-11-14T13:01:52.644Z,10.10
2022-11-14T13:04:52.006Z,10.00
2022-11-14T13:07:46.165Z,10.00
2022-11-14T13:10:14.796Z,10.00
2022-11-14T13:13:29.494Z,10.00
2022-11-14T13:16:17.518Z,9.90
2022-11-14T13:19:10.514Z,9.90
2022-11-14T13:21:46.949Z,9.90
2022-11-14T13:24:20.461Z,9.90
2022-11-14T13:26:52.857Z,9.90
2022-11-14T13:29:41.168Z,9.90
2022-11-14T13:32:11.865Z,10.00
2022-11-14T13:34:58.983Z,9.90
2022-11-14T13:37:44.594Z,9.80
2022-11-14T13:40:22.885Z,9.80
2022-11-14T13:43:01.923Z,9.80
2022-11-14T13:45:46.980Z,9.80
2022-11-14T13:48:28.580Z,9.80
2022-11-14T13:51:28.934Z,9.80
2022-11-14T13:53:56.282Z,9.80
2022-11-14T13:56:35.060Z,9.80
2022-11-14T13:59:25.060Z,9.80
2022-11-14T14:02:10.559Z,9.80
2022-11-14T14:05:05.347Z,9.80
2022-11-14T14:07:57.160Z,9.80
2022-11-14T14:10:33.582Z,9.80
2022-11-14T14:13:40.256Z,9.70
2022-11-14T14:16:30.340Z,9.80
2022-11-14T14:19:10.636Z,9.80
2022-11-14T14:21:50.141Z,9.80
2022-11-14T14:24:22.728Z,9.70
2022-11-14T14:27:16.599Z,9.80
2022-11-14T14:30:02.833Z,9.70
2022-11-14T14:32:29.631Z,9.80
2022-11-14T14:34:58.518Z,9.70
2022-11-14T14:37:27.753Z,9.70
2022-11-14T14:40:02.567Z,9.70
2022-11-14T14:42:38.902Z,9.80
2022-11-14T14:45:15.636Z,9.80
2022-11-14T14:47:45.973Z,9.80
2022-11-14T14:50:23.262Z,9.80
2022-11-14T14:53:01.378Z,9.80
2022-11-14T14:55:33.277Z,9.80
2022-11-14T14:58:23.494Z,9.80
2022-11-14T15:01:11.097Z,9.70
2022-11-14T15:03:40.527Z,9.70
2022-11-14T15:06:29.720Z,9.70
2022-11-14T15:08:58.267Z,9.70
2022-11-14T15:11:32.252Z,9.70
2022-11-14T15:14:00.678Z,9.70
2022-11-14T15:16:29.280Z,9.70
2022-11-14T15:18:58.018Z,9.70
2022-11-14T15:21:27.724Z,9.70
2022-11-14T15:24:20.280Z,9.60
2022-11-14T15:26:49.874Z,9.70
2022-11-14T15:29:20.529Z,9.70
2022-11-14T15:31:57.794Z,9.70
2022-11-14T15:34:34.338Z,9.70
2022-11-14T15:37:16.550Z,9.70
2022-11-14T15:39:44.227Z,9.70
2022-11-14T15:42:23.750Z,9.70
2022-11-14T15:44:51.124Z,9.70
2022-11-14T15:47:34.506Z,9.70
2022-11-14T15:50:22.449Z,9.60
2022-11-14T15:52:55.474Z,9.70
2022-11-14T15:55:24.210Z,9.60
2022-11-14T15:58:06.744Z,9.60
2022-11-14T16:00:43.575Z,9.60
2022-11-14T16:03:12.611Z,9.60
2022-11-14T16:05:39.426Z,9.60
2022-11-14T16:08:06.182Z,9.60
2022-11-14T16:10:32.955Z,9.60
2022-11-14T16:12:59.674Z,9.60
2022-11-14T16:15:26.503Z,9.60
2022-11-14T16:17:53.249Z,9.60
2022-11-14T16:20:28.755Z,9.60
2022-11-14T16:22:58.259Z,9.50
2022-11-14T16:25:29.803Z,9.50
2022-11-14T16:27:56.669Z,9.50
2022-11-14T16:30:25.197Z,9.50
2022-11-14T16:32:52.860Z,9.50
2022-11-14T16:35:22.016Z,9.50
2022-11-14T16:37:49.559Z,9.50
2022-11-14T16:40:22.880Z,9.60
2022-11-14T16:42:50.676Z,9.50
2022-11-14T16:45:20.162Z,9.50
2022-11-14T16:47:47.877Z,9.50
2022-11-14T16:50:15.085Z,9.50
2022-11-14T16:52:41.854Z,9.50
2022-11-14T16:55:11.345Z,9.40
2022-11-14T16:57:38.883Z,9.50
2022-11-14T17:00:09.049Z,9.40
2022-11-14T17:02:35.773Z,9.40
2022-11-14T17:05:02.584Z,9.40
2022-11-14T17:07:32.664Z,9.40
2022-11-14T17:10:02.217Z,9.50
2022-11-14T17:12:29.091Z,9.50
2022-11-14T17:14:55.940Z,9.40
2022-11-14T17:17:22.654Z,9.40
2022-11-14T17:19:49.610Z,9.40
2022-11-14T17:22:18.110Z,9.40
2022-11-14T17:24:44.875Z,9.40
2022-11-14T17:27:13.016Z,9.40
2022-11-14T17:29:40.061Z,9.50
2022-11-14T17:32:07.033Z,9.40
2022-11-14T17:34:33.941Z,9.40
2022-11-14T17:37:00.671Z,9.40
2022-11-14T17:39:27.364Z,9.40
2022-11-14T17:41:54.081Z,9.40
2022-11-14T17:44:21.056Z,9.40
2022-11-14T17:46:48.265Z,9.40
2022-11-14T17:49:15.048Z,9.40
2022-11-14T17:51:41.842Z,9.40
2022-11-14T17:54:09.030Z,9.30
2022-11-14T17:56:35.965Z,9.30
2022-11-14T17:59:03.986Z,9.30
2022-11-14T18:01:31.601Z,9.40
2022-11-14T18:04:01.754Z,9.30
2022-11-14T18:06:31.409Z,9.30
2022-11-14T18:09:01.236Z,9.30
2022-11-14T18:11:27.966Z,9.30
2022-11-14T18:13:56.015Z,9.30
2022-11-14T18:16:26.335Z,9.30
2022-11-14T18:18:58.331Z,9.30
2022-11-14T18:21:25.614Z,9.30
2022-11-14T18:23:54.158Z,9.30
2022-11-14T18:26:27.031Z,9.30
2022-11-14T18:29:02.349Z,9.30
2022-11-14T18:31:29.712Z,9.30
2022-11-14T18:33:56.964Z,9.20
2022-11-14T18:36:24.309Z,9.30
2022-11-14T18:38:51.064Z,9.30
2022-11-14T18:41:20.893Z,9.20
2022-11-14T18:43:48.280Z,9.20
2022-11-14T18:46:21.694Z,9.20
2022-11-14T18:48:53.451Z,9.20
2022-11-14T18:51:29.002Z,9.20
2022-11-14T18:53:57.814Z,9.10
2022-11-14T18:56:25.534Z,9.10
2022-11-14T18:58:54.535Z,9.10
2022-11-14T19:01:26.089Z,9.10
2022-11-14T19:03:56.900Z,9.10
2022-11-14T19:06:23.888Z,9.10
2022-11-14T19:08:50.671Z,9.10
2022-11-14T19:11:37.711Z,9.10
2022-11-14T19:14:05.997Z,9.10
2022-11-14T19:16:37.445Z,9.10
2022-11-14T19:19:08.286Z,9.10
2022-11-14T19:21:35.677Z,9.00
2022-11-14T19:24:02.873Z,9.00
2022-11-14T19:26:30.028Z,8.90
2022-11-14T19:28:57.681Z,8.90
2022-11-14T19:31:25.149Z,8.90
2022-11-14T19:33:51.968Z,8.90
2022-11-14T19:36:52.792Z,8.90
2022-11-14T19:39:08.816Z,8.90
2022-11-14T19:41:35.616Z,8.90
2022-11-14T19:44:03.277Z,8.90
2022-11-14T19:46:30.338Z,8.80
2022-11-14T19:48:58.317Z,8.80
2022-11-14T19:51:26.083Z,8.80
2022-11-14T19:53:53.532Z,8.70
2022-11-14T19:56:21.640Z,8.80
2022-11-14T19:58:49.669Z,8.70
2022-11-14T20:01:20.945Z,8.60
2022-11-14T20:03:51.875Z,8.70
2022-11-14T20:06:25.027Z,8.60
2022-11-14T20:08:55.227Z,8.60
2022-11-14T20:11:23.549Z,8.50
2022-11-14T20:13:50.678Z,8.50
2022-11-14T20:16:20.133Z,8.50
2022-11-14T20:18:57.409Z,8.50
2022-11-14T20:21:26.916Z,8.30
2022-11-14T20:23:54.351Z,8.30
2022-11-14T20:26:22.015Z,8.30
2022-11-14T20:28:52.916Z,8.30
2022-11-14T20:31:25.393Z,8.30
2022-11-14T20:33:53.651Z,8.30
2022-11-14T20:36:23.917Z,8.30
2022-11-14T20:38:52.010Z,8.30
2022-11-14T20:41:20.818Z,8.30
2022-11-14T20:43:47.983Z,8.40
2022-11-14T20:46:17.273Z,8.40
2022-11-14T20:48:44.791Z,8.40
2022-11-14T20:51:21.762Z,8.50
2022-11-14T20:53:50.062Z,8.60
2022-11-14T20:56:17.206Z,8.50
2022-11-14T20:58:46.290Z,8.60
2022-11-14T21:01:14.537Z,8.50
2022-11-14T21:03:41.841Z,8.50
2022-11-14T21:06:11.387Z,8.50
2022-11-14T21:08:39.538Z,8.50
2022-11-14T21:11:13.742Z,8.50
2022-11-14T21:13:59.224Z,8.60
2022-11-14T21:16:36.141Z,8.60
2022-11-14T21:19:04.601Z,8.60
2022-11-14T21:21:34.313Z,8.60
2022-11-14T21:24:01.231Z,8.70
2022-11-14T21:26:33.566Z,8.70
2022-11-14T21:29:04.066Z,8.70
2022-11-14T21:31:32.020Z,8.70
2022-11-14T21:34:00.762Z,8.70
2022-11-14T21:36:45.872Z,8.80
2022-11-14T21:39:16.380Z,8.80
2022-11-14T21:41:43.962Z,8.80
2022-11-14T21:44:13.451Z,8.80
2022-11-14T21:46:40.808Z,8.80
2022-11-14T21:49:07.725Z,8.80
2022-11-14T21:51:34.469Z,8.70
2022-11-14T21:54:05.192Z,8.80
2022-11-14T21:56:37.174Z,8.80
2022-11-14T21:59:14.465Z,8.80
2022-11-14T22:02:07.758Z,8.90
2022-11-14T22:04:35.662Z,8.90
2022-11-14T22:07:07.172Z,8.90
2022-11-14T22:09:34.733Z,8.90
2022-11-14T22:12:02.253Z,8.90
2022-11-14T22:14:29.577Z,9.00
2022-11-14T22:16:58.079Z,9.00
2022-11-14T22:19:24.914Z,9.00
2022-11-14T22:21:51.849Z,9.00
2022-11-14T22:24:18.668Z,9.00
2022-11-14T22:26:45.594Z,9.10
2022-11-14T22:29:12.361Z,9.10
2022-11-14T22:31:39.140Z,9.10
2022-11-14T22:34:06.445Z,9.20
2022-11-14T22:36:33.446Z,9.20
2022-11-14T22:39:00.737Z,9.20
2022-11-14T22:41:33.208Z,9.30
2022-11-14T22:44:00.695Z,9.30
2022-11-14T22:46:27.871Z,9.30
2022-11-14T22:48:55.257Z,9.30
2022-11-14T22:51:23.821Z,9.40
2022-11-14T22:53:52.916Z,9.40
2022-11-14T22:56:28.292Z,9.40
2022-11-14T22:58:55.643Z,9.50
2022-11-14T23:01:25.373Z,9.50
2022-11-14T23:04:00.539Z,9.50
2022-11-14T23:06:28.666Z,9.60
2022-11-14T23:08:55.788Z,9.60
2022-11-14T23:11:25.685Z,9.70
2022-11-14T23:13:55.011Z,9.80
2022-11-14T23:16:24.425Z,9.90
2022-11-14T23:18:53.578Z,9.90
2022-11-14T23:21:25.743Z,9.90
2022-11-14T23:23:54.044Z,9.90
2022-11-14T23:26:22.206Z,10.00
2022-11-14T23:28:49.315Z,10.00
2022-11-14T23:31:19.523Z,10.10
2022-11-14T23:33:50.412Z,10.10
2022-11-14T23:36:17.802Z,10.10
2022-11-14T23:38:44.894Z,10.10
2022-11-14T23:41:22.951Z,10.10
2022-11-14T23:43:49.730Z,10.00
2022-11-14T23:46:16.486Z,10.10
2022-11-14T23:48:43.318Z,10.30
2022-11-14T23:51:10.564Z,10.30
2022-11-14T23:53:37.304Z,10.40
2022-11-14T23:56:04.177Z,10.50
2022-11-14T23:58:31.242Z,10.40
